createdAt,value
2022-08-26T00:02:16.232Z,32.05
2022-08-26T00:04:46.590Z,31.60
2022-08-26T00:07:13.310Z,30.63
2022-08-26T00:09:40.521Z,28.17
2022-08-26T00:12:08.046Z,34.35
2022-08-26T00:14:35.726Z,37.13
2022-08-26T00:17:02.734Z,36.00
2022-08-26T00:19:29.494Z,41.30
2022-08-26T00:21:56.276Z,42.17
2022-08-26T00:24:23.861Z,32.92
2022-08-26T00:26:51.597Z,39.83
2022-08-26T00:29:18.639Z,43.30
2022-08-26T00:31:45.776Z,45.03
2022-08-26T00:34:13.153Z,43.47
2022-08-26T00:36:40.972Z,39.65
2022-08-26T00:39:08.585Z,46.10
2022-08-26T00:41:38.041Z,40.95
2022-08-26T00:44:05.627Z,35.78
2022-08-26T00:46:38.346Z,43.72
2022-08-26T00:49:13.611Z,43.17
2022-08-26T00:51:46.014Z,54.03
2022-08-26T00:54:13.370Z,54.33
2022-08-26T00:57:00.065Z,52.78
2022-08-26T00:59:29.209Z,45.90
2022-08-26T01:02:00.373Z,53.08
2022-08-26T01:04:31.413Z,46.95
2022-08-26T01:06:58.775Z,56.33
2022-08-26T01:09:25.591Z,48.03
2022-08-26T01:11:56.906Z,59.28
2022-08-26T01:14:26.649Z,54.22
2022-08-26T01:16:53.295Z,61.33
2022-08-26T01:19:32.963Z,56.78
2022-08-26T01:22:05.553Z,59.28
2022-08-26T01:24:32.306Z,59.95
2022-08-26T01:27:03.424Z,57.33
2022-08-26T01:29:33.795Z,55.67
2022-08-26T01:32:00.933Z,62.88
2022-08-26T01:34:36.939Z,62.50
2022-08-26T01:37:18.313Z,62.28
2022-08-26T01:39:49.069Z,59.25
2022-08-26T01:42:19.004Z,62.35
2022-08-26T01:45:01.014Z,63.08
2022-08-26T01:47:30.915Z,63.40
2022-08-26T01:50:01.559Z,61.08
2022-08-26T01:52:33.346Z,56.38
2022-08-26T01:55:00.990Z,60.47
2022-08-26T01:57:28.602Z,55.00
2022-08-26T02:00:01.133Z,58.40
2022-08-26T02:02:28.292Z,54.40
2022-08-26T02:05:02.275Z,62.03
2022-08-26T02:07:30.370Z,62.45
2022-08-26T02:09:59.941Z,51.05
2022-08-26T02:12:27.282Z,53.15
2022-08-26T02:14:57.780Z,58.70
2022-08-26T02:17:34.068Z,56.17
2022-08-26T02:20:02.690Z,58.83
2022-08-26T02:22:31.186Z,57.83
2022-08-26T02:25:11.791Z,55.38
2022-08-26T02:27:38.700Z,61.60
2022-08-26T02:30:15.546Z,55.75
2022-08-26T02:32:44.821Z,63.10
2022-08-26T02:35:13.601Z,54.78
2022-08-26T02:37:45.248Z,54.53
2022-08-26T02:40:14.603Z,52.72
2022-08-26T02:42:41.674Z,45.60
2022-08-26T02:45:10.723Z,55.67
2022-08-26T02:47:37.609Z,53.45
2022-08-26T02:50:06.054Z,52.42
2022-08-26T02:52:32.946Z,55.25
2022-08-26T02:55:00.539Z,53.60
2022-08-26T02:57:28.987Z,57.15
2022-08-26T02:59:55.580Z,53.45
2022-08-26T03:02:23.137Z,51.08
2022-08-26T03:04:57.744Z,49.50
2022-08-26T03:07:29.029Z,46.38
2022-08-26T03:09:57.261Z,48.25
2022-08-26T03:12:24.184Z,45.35
2022-08-26T03:14:52.901Z,53.67
2022-08-26T03:17:19.791Z,48.10
2022-08-26T03:19:46.511Z,45.25
2022-08-26T03:22:14.699Z,49.65
2022-08-26T03:24:44.398Z,47.67
2022-08-26T03:27:13.294Z,48.85
2022-08-26T03:29:59.863Z,39.13
2022-08-26T03:32:27.133Z,48.17
2022-08-26T03:34:54.362Z,43.33
2022-08-26T03:37:21.621Z,47.33
2022-08-26T03:39:48.951Z,45.85
2022-08-26T03:42:16.001Z,46.03
2022-08-26T03:44:42.774Z,39.03
2022-08-26T03:47:14.319Z,46.65
2022-08-26T03:49:41.862Z,44.17
2022-08-26T03:52:08.900Z,44.25
2022-08-26T03:54:35.696Z,46.05
2022-08-26T03:57:02.570Z,42.08
2022-08-26T03:59:29.909Z,43.92
2022-08-26T04:01:56.587Z,43.60
2022-08-26T04:04:24.433Z,43.70
2022-08-26T04:06:58.355Z,42.45
2022-08-26T04:09:26.146Z,40.35
2022-08-26T04:11:54.315Z,40.83
2022-08-26T04:14:23.773Z,38.17
2022-08-26T04:16:51.741Z,40.63
2022-08-26T04:19:20.332Z,37.38
2022-08-26T04:21:48.674Z,38.20
2022-08-26T04:24:16.697Z,34.22
2022-08-26T04:26:44.422Z,34.80
2022-08-26T04:29:18.058Z,35.67
2022-08-26T04:31:45.351Z,35.20
2022-08-26T04:34:14.078Z,40.65
2022-08-26T04:36:41.975Z,39.05
2022-08-26T04:39:12.098Z,40.97
2022-08-26T04:41:39.453Z,40.15
2022-08-26T04:44:07.145Z,39.50
2022-08-26T04:46:34.441Z,39.70
2022-08-26T04:49:02.199Z,37.92
2022-08-26T04:51:29.014Z,35.25
2022-08-26T04:53:57.446Z,33.42
2022-08-26T04:56:26.518Z,39.58
2022-08-26T04:58:53.718Z,35.83
2022-08-26T05:01:21.434Z,37.35
2022-08-26T05:03:51.686Z,39.88
2022-08-26T05:06:19.651Z,39.22
2022-08-26T05:08:46.772Z,36.88
2022-08-26T05:11:13.651Z,30.42
2022-08-26T05:13:40.597Z,36.65
2022-08-26T05:16:11.992Z,36.17
2022-08-26T05:18:39.824Z,33.10
2022-08-26T05:21:07.537Z,33.35
2022-08-26T05:23:36.014Z,33.13
2022-08-26T05:26:07.999Z,32.72
2022-08-26T05:28:35.576Z,34.88
2022-08-26T05:31:15.431Z,31.73
2022-08-26T05:33:45.395Z,34.83
2022-08-26T05:36:15.243Z,35.30
2022-08-26T05:38:42.751Z,26.98
2022-08-26T05:41:17.871Z,32.40
2022-08-26T05:43:45.463Z,30.70
2022-08-26T05:46:12.860Z,30.30
2022-08-26T05:48:40.191Z,32.97
2022-08-26T05:51:12.677Z,31.35
2022-08-26T05:53:43.735Z,29.52
2022-08-26T05:56:12.319Z,28.52
2022-08-26T05:58:40.943Z,25.30
2022-08-26T06:01:10.400Z,29.85
2022-08-26T06:03:40.210Z,26.65
2022-08-26T06:06:18.901Z,27.92
2022-08-26T06:08:48.462Z,28.25
2022-08-26T06:11:18.448Z,27.13
2022-08-26T06:13:46.457Z,26.60
2022-08-26T06:16:16.603Z,27.70
2022-08-26T06:18:46.290Z,28.30
2022-08-26T06:21:20.160Z,21.08
2022-08-26T06:24:07.866Z,24.90
2022-08-26T06:26:36.560Z,23.38
2022-08-26T06:29:04.910Z,22.83
2022-08-26T06:31:34.118Z,24.05
2022-08-26T06:34:01.504Z,22.67
2022-08-26T06:36:30.726Z,23.90
2022-08-26T06:39:00.855Z,22.13
2022-08-26T06:41:28.098Z,19.92
2022-08-26T06:43:54.907Z,19.60
2022-08-26T06:46:22.013Z,15.35
2022-08-26T06:48:48.993Z,19.88
2022-08-26T06:51:18.999Z,19.27
2022-08-26T06:53:51.240Z,17.88
2022-08-26T06:56:24.551Z,19.83
2022-08-26T06:58:52.085Z,21.80
2022-08-26T07:01:31.011Z,20.02
2022-08-26T07:04:00.259Z,19.70
2022-08-26T07:06:28.278Z,16.35
2022-08-26T07:09:04.532Z,18.38
2022-08-26T07:11:33.277Z,18.25
2022-08-26T07:14:00.254Z,17.20
2022-08-26T07:16:27.732Z,17.05
2022-08-26T07:18:56.908Z,18.05
2022-08-26T07:21:24.631Z,16.60
2022-08-26T07:23:55.437Z,15.80
2022-08-26T07:26:28.543Z,17.52
2022-08-26T07:28:57.856Z,17.20
2022-08-26T07:31:32.569Z,15.63
2022-08-26T07:34:03.551Z,16.08
2022-08-26T07:36:30.428Z,15.23
2022-08-26T07:38:57.435Z,16.35
2022-08-26T07:41:25.601Z,15.88
2022-08-26T07:43:53.755Z,15.13
2022-08-26T07:46:20.786Z,13.80
2022-08-26T07:48:54.337Z,14.15
2022-08-26T07:51:22.138Z,14.73
2022-08-26T07:53:52.296Z,15.43
2022-08-26T07:56:20.851Z,13.55
2022-08-26T07:58:51.361Z,14.52
2022-08-26T08:01:23.866Z,15.15
2022-08-26T08:03:52.366Z,14.57
2022-08-26T08:06:27.208Z,15.32
2022-08-26T08:08:56.355Z,15.25
2022-08-26T08:11:24.300Z,14.23
2022-08-26T08:13:56.036Z,13.40
2022-08-26T08:16:26.842Z,14.52
2022-08-26T08:18:56.115Z,12.40
2022-08-26T08:21:26.479Z,13.30
2022-08-26T08:23:55.588Z,11.60
2022-08-26T08:26:23.862Z,11.82
2022-08-26T08:28:54.039Z,12.70
2022-08-26T08:31:55.872Z,12.82
2022-08-26T08:34:18.151Z,10.35
2022-08-26T08:36:46.379Z,11.82
2022-08-26T08:39:13.398Z,9.48
2022-08-26T08:41:58.961Z,11.30
2022-08-26T08:47:12.199Z,11.90
2022-08-26T08:49:38.977Z,12.40
2022-08-26T08:52:37.215Z,12.57
2022-08-26T08:55:11.042Z,12.40
2022-08-26T08:57:45.183Z,13.23
2022-08-26T09:00:18.143Z,11.15
2022-08-26T09:03:03.653Z,12.70
2022-08-26T09:05:40.134Z,13.00
2022-08-26T09:08:21.345Z,12.07
2022-08-26T09:10:54.355Z,12.50
2022-08-26T09:13:24.917Z,12.77
2022-08-26T09:16:19.057Z,11.20
2022-08-26T09:19:10.847Z,10.98
2022-08-26T09:21:37.808Z,11.00
2022-08-26T09:24:06.267Z,11.52
2022-08-26T09:26:39.039Z,11.40
2022-08-26T09:29:11.223Z,10.02
2022-08-26T09:31:42.118Z,10.35
2022-08-26T09:34:21.252Z,9.40
2022-08-26T09:36:49.580Z,9.98
2022-08-26T09:39:28.142Z,10.60
2022-08-26T09:42:09.582Z,10.50
2022-08-26T09:44:52.234Z,10.88
2022-08-26T09:47:30.298Z,9.38
2022-08-26T09:50:09.453Z,9.20
2022-08-26T09:52:37.538Z,10.10
2022-08-26T09:55:12.413Z,11.10
2022-08-26T09:57:52.581Z,10.10
2022-08-26T10:00:54.168Z,9.95
2022-08-26T10:03:27.946Z,11.35
2022-08-26T10:06:13.324Z,10.32
2022-08-26T10:08:47.572Z,10.57
2022-08-26T10:11:26.357Z,10.18
2022-08-26T10:14:28.873Z,8.93
2022-08-26T10:17:21.758Z,9.20
2022-08-26T10:19:57.729Z,9.30
2022-08-26T10:22:47.603Z,8.10
2022-08-26T10:25:20.406Z,8.63
2022-08-26T10:27:53.621Z,8.55
2022-08-26T10:30:29.333Z,7.85
2022-08-26T10:33:04.510Z,8.52
2022-08-26T10:35:33.732Z,7.60
2022-08-26T10:38:11.366Z,8.68
2022-08-26T10:40:56.576Z,10.70
2022-08-26T10:43:36.886Z,8.95
2022-08-26T10:46:17.038Z,9.23
2022-08-26T10:48:57.499Z,9.23
2022-08-26T10:51:36.442Z,8.57
2022-08-26T10:54:11.867Z,8.25
2022-08-26T10:57:03.266Z,8.50
2022-08-26T11:00:23.086Z,7.13
2022-08-26T11:03:00.987Z,7.38
2022-08-26T11:05:27.686Z,6.47
2022-08-26T11:08:28.354Z,7.20
2022-08-26T11:11:00.269Z,8.20
2022-08-26T11:14:05.163Z,7.40
2022-08-26T11:16:45.005Z,7.20
2022-08-26T11:19:50.540Z,8.50
2022-08-26T11:22:33.171Z,7.47
2022-08-26T11:25:03.102Z,6.97
2022-08-26T11:27:35.828Z,7.30
2022-08-26T11:30:05.494Z,8.05
2022-08-26T11:32:35.018Z,7.85
2022-08-26T11:35:06.632Z,7.43
2022-08-26T11:37:41.323Z,7.95
2022-08-26T11:40:20.616Z,7.95
2022-08-26T11:42:55.750Z,7.78
2022-08-26T11:45:26.921Z,7.00
2022-08-26T11:47:54.813Z,6.20
2022-08-26T11:50:27.662Z,5.43
2022-08-26T11:53:06.388Z,6.10
2022-08-26T11:55:36.038Z,6.05
2022-08-26T11:58:05.763Z,7.40
2022-08-26T12:00:48.748Z,8.23
2022-08-26T12:03:21.478Z,7.60
2022-08-26T12:05:52.391Z,8.30
2022-08-26T12:08:24.485Z,7.93
2022-08-26T12:11:06.776Z,8.18
2022-08-26T12:13:34.379Z,8.52
2022-08-26T12:16:01.319Z,6.57
2022-08-26T12:18:38.344Z,7.63
2022-08-26T12:21:20.299Z,6.65
2022-08-26T12:23:51.947Z,7.03
2022-08-26T12:26:29.228Z,6.85
2022-08-26T12:29:00.553Z,6.47
2022-08-26T12:31:32.169Z,5.88
2022-08-26T12:34:00.818Z,5.95
2022-08-26T12:36:36.279Z,6.28
2022-08-26T12:39:12.159Z,5.65
2022-08-26T12:41:47.047Z,5.05
2022-08-26T12:44:37.089Z,6.18
2022-08-26T12:47:35.198Z,6.10
2022-08-26T12:50:25.111Z,6.30
2022-08-26T12:52:57.511Z,4.88
2022-08-26T12:55:33.022Z,5.35
2022-08-26T12:58:33.415Z,5.90
2022-08-26T13:01:08.771Z,5.38
2022-08-26T13:03:37.420Z,4.88
2022-08-26T13:06:29.637Z,4.97
2022-08-26T13:09:24.379Z,5.30
2022-08-26T13:11:53.120Z,5.47
2022-08-26T13:14:23.998Z,4.95
2022-08-26T13:16:52.326Z,4.68
2022-08-26T13:19:22.748Z,4.45
2022-08-26T13:21:54.790Z,4.30
2022-08-26T13:24:43.076Z,6.55
2022-08-26T13:27:13.266Z,5.53
2022-08-26T13:29:40.151Z,4.60
2022-08-26T13:32:08.861Z,5.95
2022-08-26T13:34:37.682Z,6.18
2022-08-26T13:37:05.227Z,5.95
2022-08-26T13:39:33.052Z,6.28
2022-08-26T13:42:00.234Z,6.78
2022-08-26T13:44:27.410Z,6.90
2022-08-26T13:46:54.636Z,6.90
2022-08-26T13:49:21.371Z,6.38
2022-08-26T13:51:48.306Z,6.22
2022-08-26T13:54:14.956Z,6.75
2022-08-26T13:56:41.567Z,5.82
2022-08-26T13:59:08.338Z,6.18
2022-08-26T14:01:35.762Z,7.35
2022-08-26T14:04:03.200Z,7.55
2022-08-26T14:06:30.289Z,7.00
2022-08-26T14:08:57.107Z,6.53
2022-08-26T14:11:24.893Z,5.63
2022-08-26T14:13:52.381Z,6.00
2022-08-26T14:16:27.242Z,5.28
2022-08-26T14:18:54.432Z,5.97
2022-08-26T14:21:21.852Z,5.10
2022-08-26T14:23:48.443Z,5.25
2022-08-26T14:26:28.413Z,5.72
2022-08-26T14:29:00.184Z,5.70
2022-08-26T14:31:29.489Z,4.82
2022-08-26T14:34:03.720Z,5.45
2022-08-26T14:36:33.627Z,5.38
2022-08-26T14:39:06.715Z,5.50
2022-08-26T14:41:36.262Z,4.78
2022-08-26T14:44:10.671Z,4.93
2022-08-26T14:46:44.047Z,5.10
2022-08-26T14:49:10.964Z,4.60
2022-08-26T14:51:38.183Z,5.30
2022-08-26T14:54:14.192Z,4.72
2022-08-26T14:56:51.907Z,5.35
2022-08-26T14:59:21.842Z,3.85
2022-08-26T15:01:49.256Z,3.30
2022-08-26T15:04:16.457Z,3.58
2022-08-26T15:06:43.466Z,3.72
2022-08-26T15:09:10.500Z,3.67
2022-08-26T15:11:37.263Z,3.92
2022-08-26T15:14:04.498Z,3.10
2022-08-26T15:16:31.868Z,3.60
2022-08-26T15:19:00.611Z,4.32
2022-08-26T15:21:27.243Z,4.07
2022-08-26T15:23:54.554Z,3.92
2022-08-26T15:26:21.702Z,4.97
2022-08-26T15:28:48.521Z,4.47
2022-08-26T15:31:15.349Z,4.93
2022-08-26T15:33:42.681Z,4.90
2022-08-26T15:36:10.118Z,4.60
2022-08-26T15:38:40.083Z,4.78
2022-08-26T15:41:08.644Z,4.60
2022-08-26T15:43:37.042Z,4.05
2022-08-26T15:46:04.452Z,4.90
2022-08-26T15:48:31.239Z,5.13
2022-08-26T15:51:00.755Z,4.63
2022-08-26T15:53:29.616Z,6.32
2022-08-26T15:55:57.910Z,6.68
2022-08-26T15:58:26.947Z,7.10
2022-08-26T16:00:55.338Z,7.72
2022-08-26T16:03:22.989Z,8.18
2022-08-26T16:05:49.844Z,6.88
2022-08-26T16:08:17.673Z,9.18
2022-08-26T16:10:49.948Z,9.35
2022-08-26T16:13:19.098Z,10.30
2022-08-26T16:15:47.510Z,10.93
2022-08-26T16:18:15.581Z,10.98
2022-08-26T16:20:55.300Z,9.70
2022-08-26T16:23:38.391Z,9.10
2022-08-26T16:26:12.694Z,9.93
2022-08-26T16:28:40.002Z,11.10
2022-08-26T16:31:07.454Z,11.45
2022-08-26T16:33:34.102Z,11.13
2022-08-26T16:36:00.831Z,10.13
2022-08-26T16:38:27.453Z,9.20
2022-08-26T16:40:54.053Z,9.52
2022-08-26T16:43:20.646Z,7.53
2022-08-26T16:45:47.339Z,7.85
2022-08-26T16:48:14.073Z,8.93
2022-08-26T16:50:41.923Z,9.55
2022-08-26T16:53:15.939Z,8.57
2022-08-26T16:55:47.040Z,8.40
2022-08-26T16:58:14.711Z,11.55
2022-08-26T17:00:42.234Z,8.25
2022-08-26T17:03:10.016Z,9.57
2022-08-26T17:05:36.824Z,8.05
2022-08-26T17:08:05.198Z,8.48
2022-08-26T17:10:32.787Z,7.93
2022-08-26T17:13:00.365Z,7.97
2022-08-26T17:15:27.176Z,7.72
2022-08-26T17:17:55.141Z,9.30
2022-08-26T17:20:24.164Z,9.45
2022-08-26T17:22:53.962Z,9.15
2022-08-26T17:25:29.850Z,7.68
2022-08-26T17:30:28.459Z,16.33
2022-08-26T17:32:57.913Z,12.95
2022-08-26T17:35:24.655Z,13.55
2022-08-26T17:37:52.024Z,9.02
2022-08-26T17:40:23.363Z,9.43
2022-08-26T17:42:50.354Z,9.20
2022-08-26T17:45:18.065Z,10.95
2022-08-26T17:47:45.168Z,9.20
2022-08-26T17:50:15.605Z,9.05
2022-08-26T17:52:43.947Z,9.45
2022-08-26T17:55:12.892Z,8.80
2022-08-26T17:57:40.835Z,9.50
2022-08-26T18:00:14.018Z,10.90
2022-08-26T18:02:40.753Z,10.80
2022-08-26T18:05:08.701Z,10.23
2022-08-26T18:07:43.589Z,10.75
2022-08-26T18:10:13.880Z,11.07
2022-08-26T18:12:41.687Z,8.60
2022-08-26T18:15:11.919Z,9.90
2022-08-26T18:17:39.439Z,10.20
2022-08-26T18:20:12.501Z,10.90
2022-08-26T18:22:40.126Z,10.45
2022-08-26T18:25:07.829Z,10.23
2022-08-26T18:27:36.160Z,10.52
2022-08-26T18:30:06.112Z,9.70
2022-08-26T18:32:32.743Z,10.93
2022-08-26T18:34:59.775Z,11.05
2022-08-26T18:37:29.422Z,10.43
2022-08-26T18:39:59.490Z,9.30
2022-08-26T18:42:26.845Z,10.95
2022-08-26T18:44:53.741Z,10.57
2022-08-26T18:47:20.773Z,11.02
2022-08-26T18:49:48.646Z,11.80
2022-08-26T18:52:15.723Z,11.45
2022-08-26T18:54:42.847Z,12.40
2022-08-26T18:57:09.809Z,11.95
2022-08-26T18:59:36.474Z,12.15
2022-08-26T19:02:03.348Z,13.07
2022-08-26T19:04:30.176Z,13.60
2022-08-26T19:06:56.867Z,13.50
2022-08-26T19:09:26.174Z,13.55
2022-08-26T19:11:53.037Z,14.18
2022-08-26T19:14:20.056Z,13.40
2022-08-26T19:16:48.879Z,12.70
2022-08-26T19:19:16.032Z,8.48
2022-08-26T19:21:43.306Z,12.32
2022-08-26T19:24:15.574Z,13.98
2022-08-26T19:26:51.401Z,12.70
2022-08-26T19:29:28.260Z,12.00
2022-08-26T19:31:55.154Z,12.68
2022-08-26T19:34:21.871Z,13.23
2022-08-26T19:36:49.395Z,12.68
2022-08-26T19:39:16.101Z,11.63
2022-08-26T19:41:42.894Z,12.20
2022-08-26T19:44:13.117Z,12.57
2022-08-26T19:46:40.437Z,12.50
2022-08-26T19:49:07.223Z,12.88
2022-08-26T19:51:35.241Z,12.00
2022-08-26T19:54:01.948Z,11.35
2022-08-26T19:56:28.586Z,12.57
2022-08-26T19:58:56.233Z,12.18
2022-08-26T20:01:23.759Z,10.55
2022-08-26T20:03:50.586Z,11.20
2022-08-26T20:06:18.366Z,11.23
2022-08-26T20:08:45.339Z,12.20
2022-08-26T20:11:16.233Z,10.18
2022-08-26T20:13:44.336Z,11.68
2022-08-26T20:16:12.172Z,10.68
2022-08-26T20:19:01.871Z,9.25
2022-08-26T20:21:33.131Z,10.45
2022-08-26T20:24:09.635Z,10.90
2022-08-26T20:26:38.355Z,9.80
2022-08-26T20:29:06.850Z,9.63
2022-08-26T20:31:35.332Z,9.35
2022-08-26T20:34:02.598Z,10.25
2022-08-26T20:36:29.813Z,10.20
2022-08-26T20:38:57.845Z,10.18
2022-08-26T20:41:25.799Z,9.82
2022-08-26T20:43:53.258Z,9.00
2022-08-26T20:46:24.081Z,10.77
2022-08-26T20:48:52.714Z,9.75
2022-08-26T20:51:19.399Z,10.52
2022-08-26T20:53:46.654Z,10.02
2022-08-26T20:56:15.226Z,9.05
2022-08-26T20:58:43.179Z,9.15
2022-08-26T21:01:20.534Z,8.90
2022-08-26T21:03:48.068Z,9.18
2022-08-26T21:06:14.706Z,8.68
2022-08-26T21:08:43.289Z,10.18
2022-08-26T21:11:11.593Z,9.77
2022-08-26T21:14:01.266Z,10.32
2022-08-26T21:16:25.630Z,11.20
2022-08-26T21:18:52.661Z,10.57
2022-08-26T21:21:19.992Z,10.02
2022-08-26T21:23:52.194Z,9.70
2022-08-26T21:26:19.086Z,11.00
2022-08-26T21:28:46.351Z,12.88
2022-08-26T21:31:16.636Z,11.48
2022-08-26T21:33:43.740Z,12.85
2022-08-26T21:36:11.714Z,10.40
2022-08-26T21:38:38.930Z,11.90
2022-08-26T21:41:15.212Z,11.77
2022-08-26T21:43:43.089Z,11.68
2022-08-26T21:46:14.442Z,10.60
2022-08-26T21:48:50.884Z,9.65
2022-08-26T21:51:20.667Z,10.13
2022-08-26T21:53:47.752Z,11.63
2022-08-26T21:56:16.824Z,10.90
2022-08-26T21:58:44.280Z,11.20
2022-08-26T22:01:13.713Z,12.48
2022-08-26T22:03:43.571Z,10.60
2022-08-26T22:06:18.288Z,9.68
2022-08-26T22:08:44.906Z,8.60
2022-08-26T22:11:11.611Z,9.68
2022-08-26T22:13:40.041Z,10.45
2022-08-26T22:16:07.974Z,10.32
2022-08-26T22:18:35.916Z,12.65
2022-08-26T22:21:07.824Z,9.55
2022-08-26T22:23:35.830Z,11.95
2022-08-26T22:26:03.836Z,10.65
2022-08-26T22:28:30.434Z,10.15
2022-08-26T22:30:57.051Z,13.05
2022-08-26T22:33:24.537Z,13.77
2022-08-26T22:35:52.758Z,10.85
2022-08-26T22:38:20.585Z,9.38
2022-08-26T22:40:50.464Z,10.85
2022-08-26T22:43:19.079Z,10.45
2022-08-26T22:45:47.940Z,12.82
2022-08-26T22:48:18.658Z,12.63
2022-08-26T22:50:47.445Z,10.93
2022-08-26T22:53:15.597Z,11.90
2022-08-26T22:55:43.445Z,13.95
2022-08-26T22:58:12.016Z,10.93
2022-08-26T23:00:40.009Z,9.63
2022-08-26T23:03:07.196Z,11.10
2022-08-26T23:05:34.354Z,11.13
2022-08-26T23:08:01.666Z,11.57
2022-08-26T23:10:28.798Z,10.90
2022-08-26T23:12:55.589Z,10.13
2022-08-26T23:15:22.396Z,12.32
2022-08-26T23:17:55.877Z,14.40
2022-08-26T23:20:36.346Z,14.30
2022-08-26T23:23:03.024Z,13.07
2022-08-26T23:25:32.276Z,14.85
2022-08-26T23:28:00.370Z,14.30
2022-08-26T23:30:29.542Z,14.70
2022-08-26T23:32:56.146Z,15.32
2022-08-26T23:35:22.749Z,14.20
2022-08-26T23:37:52.447Z,13.27
2022-08-26T23:40:28.646Z,14.50
2022-08-26T23:42:57.515Z,11.93
2022-08-26T23:45:25.147Z,13.98
2022-08-26T23:47:52.889Z,11.23
2022-08-26T23:50:22.204Z,13.52
2022-08-26T23:53:08.731Z,13.75
2022-08-26T23:55:39.237Z,13.13
2022-08-26T23:58:06.460Z,12.45
